Le Grand, Iowa
Current Conditions -  °F | °C
As of 10:53 PM on Saturday 25 Oct 2014 (Local Time) from KMIW Reporting Station
Clear Clear  
Wind Chill: 42°   Ceiling: Unl
Heat Index: 44°   Visibility: 10mi
Dew Point: 36°   Wind: 5mph
Humidity: 73%   Direction: 300°WNW
Pressure: 30.07"   Gusts: NA
Location:  42.01°N, 92.78°W
Report Text: KMIW 260353Z AUTO 30004KT 10SM CLR 07/02 A3007 RMK AO2 SLP183 T00670022
Loading
Personal Weather Stations






























Interactive Weather Map
Tropical Storm Tracking
New forecast layout! Learn more

10-Day Weather Forecast

Advertisements
Track Severe Weather on mobile